Peotone Weather

Nearby METAR Reports

 

KIGQ - Lansing, Illinois, USA
Distance from station: NE 19mi, 30km
Updated: Thu, 20-Jun-2024 7:55pm CDT
Mist, Overcast
Mist, Overcast
 Wind from NNE
Wind: NNE 9 mph, 15 km/h
Temperature: 66°F, 19°C
Dew Point: 66°F, 19°C
Humidity: 100%
Barometer: 30.27 inHg, 1025.1 hPa
Summary: Mist
Clouds: Overcast
Visibility: 5 miles, 8 km
Cloud details: Overcast 500 ft
2024/06/21 00:55 KIGQ 210055Z AUTO 02008KT 5SM BR OVC005 19/19 A3027 RMK AO2 T01880188
KIKK - Kankakee, Illinois, USA
Distance from station: S 19mi, 30km
Updated: Thu, 20-Jun-2024 7:55pm CDT
Overcast
Overcast
 Wind from NNW
Wind: NNW 6 mph, 9 km/h
Temperature: 79°F, 26°C
Dew Point: 68°F, 20°C
Humidity: 70%
Barometer: 30.23 inHg, 1023.7 hPa
Clouds: Overcast
Visibility: 10 miles, 16 km
Cloud details: Mostly cloudy 7000 ft
Overcast 9500 ft
2024/06/21 00:55 KIKK 210055Z AUTO 34005KT 10SM BKN070 OVC095 26/20 A3023 RMK AO2 T02590195
 
KSJC - Joliet, Illinois, USA
Distance from station: WNW 24mi, 38km
Updated: Thu, 20-Jun-2024 7:53pm CDT
Partly cloudy
Partly cloudy
 Wind from NW
Wind: NW 16 mph, 26 km/h
Temperature: 70°F, 21°C
Dew Point: 50°F, 10°C
Humidity: 50%
Barometer: 29.84 inHg, 1010.5 hPa
Clouds: Partly cloudy
Visibility: 9 miles, 14 km
Cloud details: Few Clouds 5000 ft
Few Clouds 6500 ft
Partly cloudy 8500 ft
2024/06/21 00:53 KSJC 210053Z 32014KT 9SM FEW050 FEW065 SCT085 21/10 A2984 RMK AO2 SLP103 T02060100
KLOT - Romeoville, Illinois, USA
Distance from station: NW 26mi, 41km
Updated: Thu, 20-Jun-2024 7:45pm CDT
Mostly cloudy
Mostly cloudy
 Wind from N
Wind: N 8 mph, 13 km/h
Temperature: 72°F, 22°C
Dew Point: 72°F, 22°C
Humidity: 100%
Barometer: 30.25 inHg, 1024.4 hPa
Clouds: Mostly cloudy
Visibility: 7 miles, 11 km
Cloud details: Mostly cloudy 7000 ft
2024/06/21 00:45 KLOT 210045Z 01007KT 7SM BKN070 22/22 A3025
 
KMDW - Midway Airport Chicago, Illinois, USA
Distance from station: N 31mi, 50km
Updated: Thu, 20-Jun-2024 7:53pm CDT
Overcast
Overcast
 Wind from NE
Wind: NE 8 mph, 13 km/h
Temperature: 70°F, 21°C
Dew Point: 66°F, 19°C
Humidity: 88%
Barometer: 30.25 inHg, 1024.4 hPa
Clouds: Overcast
Visibility: 10 miles, 16 km
Cloud details: Mostly cloudy 800 ft
Mostly cloudy 7000 ft
Mostly cloudy 11000 ft
Overcast 25000 ft
2024/06/21 00:53 KMDW 210053Z 05007KT 10SM BKN008 BKN070 BKN110 OVC250 21/19 A3025 RMK AO2 RAE02 SLP235 P0000 T02110189
KC09 - Morris, Illinois, USA
Distance from station: W 34mi, 54km
Updated: Thu, 20-Jun-2024 7:55pm CDT
Light rain, Partly cloudy
Light rain, Partly cloudy
 Wind from N
Wind: N 3 mph, 6 km/h
Temperature: 77°F, 25°C
Dew Point: 68°F, 20°C
Humidity: 74%
Barometer: 30.23 inHg, 1023.7 hPa
Summary: Light rain
Clouds: Partly cloudy
Visibility: 10 miles, 16 km
Cloud details: Partly cloudy 6000 ft
2024/06/21 00:55 KC09 210055Z AUTO 36003KT 10SM -RA SCT060 25/20 A3023 RMK AO2 T02510202

Metar display script from Saratoga-Weather.org